Time;durP1;ratioP1;P1;durP2;ratioP2;P2;SDS_P1;SDS_P2;PMS_P1;PMS_P2;Temp;Humidity;BMP_temperature;BMP_pressure;BME280_temperature;BME280_humidity;BME280_pressure;Samples;Min_cycle;Max_cycle;Signal;HPM_P1;HPM_P2
2022/06/02 00:00:20;;;;;;;5.88;3.83;;;;;;;28.14;45.84;98932.44;5059378;28;19908;-78
2022/06/02 00:03:00;;;;;;;8.05;4.07;;;;;;;28.13;45.83;98936.13;5076808;28;20076;-78
2022/06/02 00:06:07;;;;;;;8.45;4.25;;;;;;;28.11;46.00;98942.63;5077316;28;20032;-78
2022/06/02 00:08:57;;;;;;;6.47;3.90;;;;;;;28.12;46.21;98949.66;4995764;28;20057;-78
2022/06/02 00:11:48;;;;;;;6.57;3.47;;;;;;;28.11;45.93;98953.34;5072831;28;20036;-78
2022/06/02 00:14:36;;;;;;;7.47;3.95;;;;;;;28.10;46.18;98967.75;5066778;28;20359;-78
2022/06/02 00:17:07;;;;;;;6.75;4.57;;;;;;;28.08;46.10;98967.91;5058222;28;20032;-77
2022/06/02 00:20:02;;;;;;;9.05;4.25;;;;;;;28.07;46.06;98985.00;5058984;28;20096;-79
2022/06/02 00:22:40;;;;;;;8.65;4.18;;;;;;;28.07;46.37;98978.78;5058787;28;20438;-80
2022/06/02 00:25:34;;;;;;;7.43;4.30;;;;;;;28.05;46.14;98976.28;5076495;28;20466;-78
2022/06/02 00:28:11;;;;;;;7.18;4.38;;;;;;;28.04;46.25;98984.47;5076538;28;20024;-79
2022/06/02 00:30:51;;;;;;;7.60;4.47;;;;;;;28.02;46.37;98992.66;5080106;28;20025;-79
2022/06/02 00:33:30;;;;;;;8.80;4.10;;;;;;;28.02;46.19;98995.34;5079125;28;20362;-78
2022/06/02 00:36:00;;;;;;;7.25;4.53;;;;;;;28.00;46.25;98984.75;5060524;28;20473;-78
2022/06/02 00:38:36;;;;;;;7.68;4.20;;;;;;;27.99;46.60;98976.88;5079212;28;20054;-80
2022/06/02 00:41:10;;;;;;;;;;;;;;;28.01;46.70;98980.25;5061860;28;20079;-80
2022/06/02 00:43:58;;;;;;;6.60;4.28;;;;;;;27.99;46.60;98993.78;5080486;28;20468;-80
2022/06/02 00:46:38;;;;;;;8.02;4.68;;;;;;;27.98;46.42;98993.94;5081644;28;20469;-79
2022/06/02 00:49:16;;;;;;;7.45;4.20;;;;;;;27.97;46.79;98993.13;5081033;28;20403;-79
2022/06/02 00:51:56;;;;;;;6.47;3.92;;;;;;;27.97;46.78;98989.56;5082623;28;20024;-80
2022/06/02 00:57:39;;;;;;;6.55;4.32;;;;;;;27.97;46.36;99021.75;5082534;28;20035;-82
2022/06/02 01:00:14;;;;;;;6.57;4.50;;;;;;;27.96;46.78;99025.44;5064894;28;20020;-82
2022/06/02 01:02:45;;;;;;;6.32;4.07;;;;;;;27.95;46.60;99029.13;5083997;28;20049;-81
2022/06/02 01:05:12;;;;;;;8.10;4.65;;;;;;;27.94;46.63;99033.63;5083747;28;20103;-81
2022/06/02 01:07:56;;;;;;;7.38;4.38;;;;;;;27.93;46.27;99031.94;5081484;28;20033;-79
2022/06/02 01:10:43;;;;;;;7.30;4.30;;;;;;;27.92;46.72;99032.94;5079185;28;20462;-80
2022/06/02 01:13:24;;;;;;;7.53;4.32;;;;;;;27.92;46.90;99027.56;5077888;28;20035;-80
2022/06/02 01:16:02;;;;;;;7.45;4.32;;;;;;;27.91;46.58;99019.66;5058251;28;20016;-78
2022/06/02 01:18:54;;;;;;;6.13;3.72;;;;;;;27.90;46.65;99018.00;5058318;28;20458;-79
2022/06/02 01:22:03;;;;;;;8.98;4.68;;;;;;;27.88;46.63;99024.34;5076030;28;20020;-78
2022/06/02 01:25:03;;;;;;;6.90;4.53;;;;;;;27.88;46.68;99024.34;5075644;28;20020;-78
2022/06/02 01:27:44;;;;;;;6.38;4.15;;;;;;;27.87;47.02;99038.75;5057378;28;20025;-78
2022/06/02 01:30:21;;;;;;;5.03;3.70;;;;;;;27.86;46.82;99036.22;5058313;28;20020;-79
2022/06/02 01:33:06;;;;;;;6.82;3.97;;;;;;;27.84;46.96;99047.09;5076015;28;20020;-78
2022/06/02 01:35:49;;;;;;;7.35;3.90;;;;;;;27.84;46.67;99049.75;5076472;28;20373;-78
2022/06/02 01:38:36;;;;;;;6.38;4.05;;;;;;;27.84;46.52;99049.75;5077072;28;20377;-83
2022/06/02 01:41:16;;;;;;;7.85;4.43;;;;;;;27.82;46.84;99035.69;5057678;28;20374;-78
2022/06/02 01:44:06;;;;;;;8.23;4.18;;;;;;;27.81;46.93;99028.63;5057212;28;20024;-79
2022/06/02 01:46:42;;;;;;;6.25;3.90;;;;;;;27.80;46.95;99020.72;5077546;28;20029;-80
2022/06/02 01:49:32;;;;;;;8.80;4.60;;;;;;;27.77;47.02;99021.88;5057366;28;20086;-79
2022/06/02 01:52:06;;;;;;;6.75;3.88;;;;;;;27.76;46.86;99020.19;5057555;28;20127;-80
2022/06/02 01:55:09;;;;;;;7.22;4.00;;;;;;;27.76;46.78;99028.22;5076290;28;20028;-79
2022/06/02 01:58:08;;;;;;;7.05;4.10;;;;;;;27.76;46.82;99052.34;5057188;28;20028;-78
2022/06/02 02:00:35;;;;;;;6.88;3.95;;;;;;;27.72;47.15;99054.50;5056738;28;20095;-79
2022/06/02 02:03:03;;;;;;;6.28;4.07;;;;;;;27.72;46.72;99056.31;5056902;28;20140;-78
2022/06/02 02:05:46;;;;;;;6.72;3.67;;;;;;;27.72;47.08;99056.31;5057249;28;20040;-77
2022/06/02 02:08:38;;;;;;;7.43;3.75;;;;;;;27.71;46.79;99051.94;5074811;28;20457;-78
2022/06/02 02:11:27;;;;;;;5.60;4.28;;;;;;;27.68;47.10;99054.91;5044471;28;20454;-78
2022/06/02 02:14:11;;;;;;;7.20;4.25;;;;;;;27.68;46.71;99044.19;5075189;28;20514;-79
2022/06/02 02:16:58;;;;;;;7.72;4.15;;;;;;;27.66;47.06;99051.53;5075814;28;20421;-78
2022/06/02 02:19:56;;;;;;;7.47;4.22;;;;;;;27.65;47.05;99042.66;5075376;28;20028;-78
2022/06/02 02:22:46;;;;;;;5.75;3.85;;;;;;;27.65;46.87;99044.50;5057820;28;20046;-78
2022/06/02 02:25:29;;;;;;;6.22;4.32;;;;;;;27.63;46.94;99033.06;5057314;28;20484;-78
2022/06/02 02:28:22;;;;;;;7.25;4.05;;;;;;;27.62;46.91;99040.28;5075842;28;20103;-78
2022/06/02 02:31:00;;;;;;;5.78;4.07;;;;;;;27.60;46.92;99028.88;5057741;28;20028;-78
2022/06/02 02:33:49;;;;;;;7.50;4.25;;;;;;;27.59;47.29;99025.34;5062959;28;20095;-78
2022/06/02 02:36:20;;;;;;;5.13;3.65;;;;;;;27.59;46.72;99029.84;5058644;28;20028;-78
2022/06/02 02:38:45;;;;;;;5.85;3.70;;;;;;;27.57;46.88;99038.03;5077529;28;20085;-78
2022/06/02 02:41:22;;;;;;;6.10;3.80;;;;;;;27.56;47.10;99036.31;5080750;28;20084;-78
2022/06/02 02:43:54;;;;;;;8.52;4.35;;;;;;;27.55;47.26;99053.38;5080591;28;20035;-80
2022/06/02 02:46:29;;;;;;;5.88;4.00;;;;;;;27.55;46.89;99061.41;5081452;28;20036;-78
2022/06/02 02:49:08;;;;;;;6.80;4.20;;;;;;;27.52;46.95;99067.09;5080698;28;20112;-80
2022/06/02 02:51:50;;;;;;;7.43;4.30;;;;;;;27.52;47.01;99083.16;5062830;28;20036;-77
2022/06/02 02:54:56;;;;;;;6.75;4.32;;;;;;;27.52;46.60;99109.09;5081536;28;20523;-79
2022/06/02 02:57:47;;;;;;;6.38;3.67;;;;;;;27.50;46.62;99132.53;5083073;28;20106;-80
2022/06/02 03:00:35;;;;;;;6.10;4.20;;;;;;;27.48;46.31;99130.00;5064987;28;20043;-79
2022/06/02 03:03:18;;;;;;;6.20;3.88;;;;;;;27.46;46.32;99105.19;5065002;28;20048;-78
2022/06/02 03:06:05;;;;;;;6.20;4.30;;;;;;;27.46;46.55;99056.97;5065424;28;20039;-79
2022/06/02 03:08:54;;;;;;;6.75;4.13;;;;;;;27.45;46.72;99034.66;5065138;28;20040;-82
2022/06/02 03:11:30;;;;;;;6.00;3.78;;;;;;;27.46;46.98;99041.72;5064669;28;20024;-81
2022/06/02 03:14:07;;;;;;;6.07;3.95;;;;;;;27.43;47.08;99014.38;5068026;28;20024;-78
2022/06/02 03:16:37;;;;;;;5.72;3.75;;;;;;;27.41;46.85;99003.78;5085457;28;20066;-84
2022/06/02 03:19:03;;;;;;;6.70;4.70;;;;;;;27.41;47.28;99000.28;5086814;28;20103;-82
2022/06/02 03:21:34;;;;;;;5.78;3.58;;;;;;;27.40;47.40;98983.34;5069269;28;20394;-81
2022/06/02 03:24:20;;;;;;;5.88;4.10;;;;;;;27.38;47.26;98963.06;5066134;28;20347;-81
2022/06/02 03:27:27;;;;;;;8.85;4.30;;;;;;;27.37;47.47;98956.88;5086494;28;20424;-79
2022/06/02 03:30:22;;;;;;;7.68;4.63;;;;;;;27.37;47.76;98972.09;5040594;28;20067;-78
2022/06/02 03:33:13;;;;;;;8.48;4.43;;;;;;;27.36;47.46;99002.56;5078895;28;20036;-77
2022/06/02 03:36:04;;;;;;;6.53;4.40;;;;;;;27.32;47.32;99032.31;5061346;28;20097;-78
2022/06/02 03:39:01;;;;;;;7.45;4.07;;;;;;;27.32;47.44;99031.47;5079404;28;20020;-79
2022/06/02 03:41:51;;;;;;;5.88;4.25;;;;;;;27.30;47.26;99010.19;5079414;28;20020;-78
2022/06/02 03:44:54;;;;;;;7.28;4.00;;;;;;;27.29;47.37;99019.22;5078454;28;20029;-79
2022/06/02 03:47:32;;;;;;;7.43;4.30;;;;;;;27.26;47.21;99030.22;5078671;28;20564;-80
2022/06/02 03:50:13;;;;;;;6.25;4.38;;;;;;;27.26;47.39;99043.59;5078056;28;20039;-80
2022/06/02 03:52:38;;;;;;;5.55;4.10;;;;;;;27.26;47.53;99050.81;5078546;28;20029;-80
2022/06/02 03:55:25;;;;;;;7.25;3.83;;;;;;;27.23;47.55;99045.72;5078566;28;20024;-78
2022/06/02 03:58:16;;;;;;;6.82;4.32;;;;;;;27.21;47.71;99032.47;5077324;28;20035;-80
2022/06/02 04:01:01;;;;;;;7.68;4.35;;;;;;;27.20;47.64;99049.53;5077619;28;20035;-78
2022/06/02 04:04:08;;;;;;;6.85;3.95;;;;;;;27.18;47.56;99044.34;5077042;28;20056;-79
2022/06/02 04:07:01;;;;;;;8.35;4.60;;;;;;;27.18;47.27;99038.13;5078055;28;20082;-78
2022/06/02 04:09:59;;;;;;;6.50;4.38;;;;;;;27.17;47.57;99033.78;5059086;28;20355;-79
2022/06/02 04:15:55;;;;;;;6.55;4.40;;;;;;;27.15;47.71;99046.44;5076752;28;20040;-78
2022/06/02 04:18:59;;;;;;;6.85;3.97;;;;;;;27.11;47.43;99050.41;5059137;28;20027;-78
2022/06/02 04:21:47;;;;;;;8.75;4.32;;;;;;;27.11;47.40;99047.75;5074712;28;20473;-79
2022/06/02 04:24:40;;;;;;;8.00;4.63;;;;;;;27.11;47.24;99058.44;5077778;28;20024;-78
2022/06/02 04:27:14;;;;;;;8.52;4.40;;;;;;;27.12;47.37;99068.16;5077187;28;20025;-81
2022/06/02 04:30:06;;;;;;;7.53;4.50;;;;;;;27.07;47.37;99069.44;5058912;28;20056;-80
2022/06/02 04:33:02;;;;;;;5.72;3.78;;;;;;;27.12;47.53;99076.22;5059448;28;20111;-80
2022/06/02 04:35:36;;;;;;;6.63;4.20;;;;;;;27.08;47.32;99064.94;5078799;28;20438;-78
2022/06/02 04:38:20;;;;;;;6.13;3.90;;;;;;;27.06;47.49;99067.75;5078373;28;20028;-79
2022/06/02 04:40:59;;;;;;;6.97;4.10;;;;;;;27.05;47.28;99075.91;5077676;28;20069;-78
2022/06/02 04:43:39;;;;;;;6.85;4.35;;;;;;;27.04;46.98;99071.56;5077114;28;20017;-78
2022/06/02 04:46:23;;;;;;;6.07;3.67;;;;;;;27.05;46.84;99073.25;5077339;28;20020;-78
2022/06/02 04:49:03;;;;;;;6.50;3.75;;;;;;;27.03;46.89;99077.91;5059093;28;20378;-80
2022/06/02 04:51:42;;;;;;;6.00;3.75;;;;;;;27.03;46.85;99083.25;5077037;28;20058;-81
2022/06/02 04:54:36;;;;;;;6.00;3.80;;;;;;;27.01;46.75;99080.72;5080362;28;20025;-83
2022/06/02 04:57:12;;;;;;;6.00;3.78;;;;;;;27.01;46.96;99096.78;5072367;28;20065;-79
2022/06/02 04:59:49;;;;;;;5.60;3.80;;;;;;;27.00;46.81;99089.75;5077643;28;20485;-79
2022/06/02 05:02:36;;;;;;;5.13;3.92;;;;;;;26.98;46.69;99086.38;5060191;28;20052;-80
2022/06/02 05:05:14;;;;;;;7.00;3.75;;;;;;;26.97;46.93;99090.03;5075890;28;20032;-80
2022/06/02 05:07:57;;;;;;;5.13;3.65;;;;;;;26.96;46.53;99082.97;5075946;28;20457;-84
2022/06/02 05:10:25;;;;;;;6.32;3.92;;;;;;;26.95;46.50;99083.97;5058038;28;20116;-82
2022/06/02 05:13:15;;;;;;;5.85;3.60;;;;;;;26.95;46.48;99083.97;5058501;28;20020;-80
2022/06/02 05:16:15;;;;;;;6.32;4.13;;;;;;;26.93;46.29;99083.28;5076655;28;20027;-78
2022/06/02 05:19:19;;;;;;;5.85;4.18;;;;;;;26.93;46.49;99085.94;5045353;28;20124;-79
2022/06/02 05:22:10;;;;;;;5.57;4.00;;;;;;;26.91;46.60;99093.22;5080303;28;20091;-82
2022/06/02 05:25:26;;;;;;;7.85;4.15;;;;;;;26.92;46.58;99097.66;5064809;28;20020;-81
2022/06/02 05:28:13;;;;;;;5.90;3.25;;;;;;;26.91;46.68;99101.25;5001998;28;20038;-83
2022/06/02 05:31:11;;;;;;;6.82;3.85;;;;;;;26.90;46.42;99116.50;5002255;28;20483;-80
2022/06/02 05:33:36;;;;;;;6.63;4.28;;;;;;;26.88;46.39;99115.78;5037314;28;20096;-83
2022/06/02 05:36:19;;;;;;;5.78;3.90;;;;;;;26.88;46.43;99117.63;5085843;28;20043;-83
2022/06/02 05:39:21;;;;;;;7.88;4.35;;;;;;;26.86;46.72;99119.56;5068426;28;20080;-83
2022/06/02 05:42:22;;;;;;;6.72;3.58;;;;;;;26.85;46.43;99113.41;5085831;28;20097;-83
2022/06/02 05:44:59;;;;;;;5.28;3.50;;;;;;;26.85;46.57;99112.53;5077615;28;20016;-79
2022/06/02 05:47:57;;;;;;;7.05;3.88;;;;;;;26.85;46.49;99120.56;5058816;28;20472;-81
2022/06/02 05:50:45;;;;;;;5.57;3.60;;;;;;;26.83;46.51;99114.53;5042140;28;20032;-82
2022/06/02 05:53:26;;;;;;;5.43;3.30;;;;;;;26.83;46.42;99120.72;5059708;28;20466;-79
2022/06/02 05:55:52;;;;;;;5.72;3.08;;;;;;;26.82;46.41;99119.00;5057548;28;20035;-80
2022/06/02 05:58:37;;;;;;;8.55;3.67;;;;;;;26.80;46.41;99116.50;5057721;28;20458;-79
2022/06/02 06:01:31;;;;;;;5.38;3.42;;;;;;;26.80;46.70;99119.19;5075721;28;20024;-79
2022/06/02 06:04:30;;;;;;;6.35;4.18;;;;;;;26.80;46.48;99126.34;5075712;28;20140;-79
2022/06/02 06:07:01;;;;;;;7.68;3.58;;;;;;;26.79;46.66;99136.19;5057889;28;20035;-79
2022/06/02 06:09:40;;;;;;;5.70;3.67;;;;;;;26.79;46.40;99136.19;5058046;28;20063;-79
2022/06/02 06:12:54;;;;;;;5.25;3.65;;;;;;;26.79;46.52;99136.19;5076256;28;20040;-79
2022/06/02 06:15:32;;;;;;;4.47;3.20;;;;;;;26.79;46.75;99144.22;5054350;28;20036;-79
2022/06/02 06:18:01;;;;;;;6.10;3.70;;;;;;;26.78;46.59;99150.56;5061394;28;20036;-80
2022/06/02 06:20:48;;;;;;;5.03;3.55;;;;;;;26.76;46.41;99157.91;5079401;28;20035;-79
2022/06/02 06:23:16;;;;;;;7.78;4.05;;;;;;;26.76;46.56;99157.91;5079089;28;20024;-80
2022/06/02 06:26:07;;;;;;;6.57;4.05;;;;;;;26.76;46.34;99151.69;5061476;28;20042;-80
2022/06/02 06:28:40;;;;;;;6.63;3.70;;;;;;;26.75;46.52;99156.22;5078934;28;20097;-80
2022/06/02 06:31:15;;;;;;;7.70;3.40;;;;;;;26.76;46.38;99140.97;5080520;28;20028;-80
2022/06/02 06:33:57;;;;;;;5.65;3.80;;;;;;;26.74;46.45;99146.50;5080025;28;20024;-79
2022/06/02 06:36:48;;;;;;;5.82;3.30;;;;;;;26.73;46.52;99152.81;5061299;28;20032;-79
2022/06/02 06:39:36;;;;;;;7.00;3.78;;;;;;;26.74;46.51;99159.03;5062837;28;20025;-81
2022/06/02 06:42:23;;;;;;;4.72;3.22;;;;;;;26.73;46.38;99155.50;5040865;28;20118;-81
2022/06/02 06:44:53;;;;;;;;;;;;;;;26.73;46.40;99168.88;5061306;28;20032;-79
2022/06/02 06:47:36;;;;;;;5.00;3.40;;;;;;;26.73;46.72;99173.41;5078601;28;19912;-81
2022/06/02 06:50:17;;;;;;;6.28;3.78;;;;;;;26.73;46.63;99182.25;5079049;28;20036;-80
2022/06/02 06:52:57;;;;;;;6.25;3.75;;;;;;;26.73;46.25;99178.75;5061326;28;20032;-80
2022/06/02 06:55:39;;;;;;;5.72;3.90;;;;;;;26.72;46.46;99188.59;5061223;28;20197;-79
2022/06/02 06:58:22;;;;;;;4.90;3.30;;;;;;;26.74;46.39;99196.50;5078820;28;20037;-80
2022/06/02 07:00:56;;;;;;;6.35;3.88;;;;;;;26.73;46.46;99184.09;5078702;28;20477;-83
2022/06/02 07:03:52;;;;;;;6.72;3.47;;;;;;;26.72;46.54;99193.13;5061363;28;20063;-79
2022/06/02 07:06:46;;;;;;;6.15;3.63;;;;;;;26.71;46.61;99202.09;5061687;28;20028;-80
2022/06/02 07:09:19;;;;;;;5.53;3.80;;;;;;;26.71;46.59;99197.63;5078952;28;20107;-79
2022/06/02 07:15:23;;;;;;;7.05;3.60;;;;;;;26.71;46.29;99208.31;5080897;28;20055;-79
2022/06/02 07:18:26;;;;;;;5.38;3.72;;;;;;;26.70;46.61;99201.28;5034205;28;20036;-78
2022/06/02 07:20:53;;;;;;;5.28;3.33;;;;;;;26.70;46.35;99198.59;5064042;28;20487;-79
2022/06/02 07:23:27;;;;;;;6.50;3.60;;;;;;;26.69;46.49;99199.59;5082099;28;20076;-79
2022/06/02 07:26:11;;;;;;;6.40;3.72;;;;;;;26.70;46.42;99209.31;5064088;28;20043;-80
2022/06/02 07:28:55;;;;;;;5.82;3.58;;;;;;;26.70;46.41;99200.41;5082620;28;20025;-81
2022/06/02 07:31:29;;;;;;;5.03;3.63;;;;;;;26.67;46.41;99201.53;5064770;28;20496;-79
2022/06/02 07:34:16;;;;;;;6.18;3.53;;;;;;;26.69;46.45;99210.28;5084235;28;20028;-81
2022/06/02 07:37:11;;;;;;;6.32;3.58;;;;;;;26.68;46.71;99213.94;5084216;28;20055;-82
2022/06/02 07:39:54;;;;;;;5.25;3.20;;;;;;;26.70;46.64;99217.34;5085012;28;20028;-82
2022/06/02 07:42:57;;;;;;;5.43;3.28;;;;;;;26.67;46.59;99215.78;5066393;28;20032;-79
2022/06/02 07:45:42;;;;;;;5.15;3.45;;;;;;;26.66;46.36;99205.19;5084343;28;20143;-83
2022/06/02 07:48:45;;;;;;;6.57;3.63;;;;;;;26.65;46.43;99211.53;5082245;28;20039;-81
2022/06/02 07:51:40;;;;;;;5.85;3.72;;;;;;;26.65;46.62;99222.25;5066354;28;20024;-82
2022/06/02 07:54:19;;;;;;;5.00;3.33;;;;;;;26.66;46.47;99221.25;5084951;28;20354;-80
2022/06/02 07:57:12;;;;;;;4.75;3.42;;;;;;;26.64;46.66;99213.38;5085799;28;20028;-82
2022/06/02 07:59:39;;;;;;;5.20;3.72;;;;;;;26.66;46.51;99210.56;5067762;28;20492;-82
2022/06/02 08:02:40;;;;;;;4.88;3.28;;;;;;;26.65;46.35;99203.53;5085749;28;20048;-82
2022/06/02 08:05:19;;;;;;;5.18;3.40;;;;;;;26.64;46.33;99201.84;5067639;28;20067;-82
2022/06/02 08:08:02;;;;;;;6.63;3.85;;;;;;;26.64;46.50;99196.47;5082124;28;20024;-81
2022/06/02 08:10:43;;;;;;;5.90;3.50;;;;;;;26.64;46.50;99196.47;5078147;28;20086;-78
2022/06/02 08:13:30;;;;;;;5.75;3.45;;;;;;;26.63;46.46;99192.94;5061736;28;20063;-79
2022/06/02 08:16:03;;;;;;;5.88;3.60;;;;;;;26.63;46.52;99200.16;5079019;28;20089;-82
2022/06/02 08:18:48;;;;;;;6.70;3.78;;;;;;;26.63;46.40;99189.44;5058827;28;20028;-81
2022/06/02 08:21:32;;;;;;;6.80;3.70;;;;;;;26.63;46.64;99192.13;5077947;28;20078;-80
2022/06/02 08:23:58;;;;;;;5.97;3.47;;;;;;;26.63;46.57;99189.44;5077759;28;20350;-80
2022/06/02 08:26:38;;;;;;;5.47;3.92;;;;;;;26.63;46.25;99184.09;5077726;28;20043;-82
2022/06/02 08:29:33;;;;;;;7.55;3.72;;;;;;;26.64;46.58;99180.41;5076750;28;20066;-80
2022/06/02 08:32:17;;;;;;;6.63;3.65;;;;;;;26.64;46.54;99180.41;5067161;28;20094;-80
2022/06/02 08:35:07;;;;;;;7.03;3.90;;;;;;;26.65;46.43;99182.97;5059198;28;20044;-79
2022/06/02 08:37:44;;;;;;;5.95;3.72;;;;;;;26.64;46.42;99183.09;5075836;28;20446;-79
2022/06/02 08:40:29;;;;;;;6.30;3.80;;;;;;;26.64;46.50;99185.78;5058842;28;20055;-79
2022/06/02 08:43:19;;;;;;;6.20;3.80;;;;;;;26.64;46.85;99191.13;5058982;28;20032;-79
2022/06/02 08:46:20;;;;;;;6.82;3.63;;;;;;;26.64;46.83;99186.59;5076174;28;20476;-79
2022/06/02 08:49:21;;;;;;;6.53;4.05;;;;;;;26.64;46.75;99191.97;5076834;28;20032;-79
2022/06/02 08:52:24;;;;;;;6.65;4.20;;;;;;;26.65;46.74;99187.47;5076195;28;20036;-79
2022/06/02 08:55:27;;;;;;;7.63;3.60;;;;;;;26.66;46.75;99189.16;5076175;28;20423;-79
2022/06/02 08:58:16;;;;;;;5.50;3.65;;;;;;;26.66;46.48;99184.66;5076076;28;20096;-79
2022/06/02 09:01:16;;;;;;;6.03;3.85;;;;;;;26.66;46.61;99187.34;5076474;28;20346;-80
2022/06/02 09:03:56;;;;;;;6.32;3.83;;;;;;;26.68;46.62;99184.50;5075784;28;20040;-80
2022/06/02 09:06:41;;;;;;;6.18;3.97;;;;;;;26.70;46.61;99179.00;5075888;28;20032;-80
2022/06/02 09:09:18;;;;;;;7.47;3.90;;;;;;;26.69;46.45;99183.53;5077528;28;20055;-79
2022/06/02 09:12:07;;;;;;;5.53;3.60;;;;;;;26.69;46.39;99191.56;5076957;28;20495;-80
2022/06/02 09:14:41;;;;;;;6.53;4.15;;;;;;;26.66;46.42;99179.31;5075900;28;20036;-80
2022/06/02 09:17:29;;;;;;;5.57;3.88;;;;;;;26.66;46.60;99173.94;5077281;28;20065;-79
2022/06/02 09:20:25;;;;;;;6.40;3.85;;;;;;;26.69;46.64;99178.19;5076446;28;20526;-79
2022/06/02 09:23:15;;;;;;;6.57;3.80;;;;;;;26.72;46.38;99177.88;5077130;28;20054;-79
2022/06/02 09:26:31;;;;;;;6.63;4.10;;;;;;;26.75;46.46;99179.44;5076105;28;20028;-79
2022/06/02 09:29:14;;;;;;;5.22;4.22;;;;;;;26.76;46.51;99178.47;5042766;28;20435;-78
2022/06/02 09:32:05;;;;;;;6.05;4.03;;;;;;;26.75;46.54;99180.31;5057977;28;20032;-79
2022/06/02 09:34:55;;;;;;;6.93;3.80;;;;;;;26.78;46.63;99181.88;5058279;28;20040;-81
2022/06/02 09:37:33;;;;;;;6.82;3.78;;;;;;;26.77;46.42;99175.66;5076044;28;20074;-79
2022/06/02 09:40:34;;;;;;;6.50;3.90;;;;;;;26.79;46.73;99173.66;5076508;28;20116;-81
2022/06/02 09:43:20;;;;;;;6.63;4.07;;;;;;;26.83;46.70;99168.91;5058004;28;20107;-80
2022/06/02 09:46:12;;;;;;;6.65;3.97;;;;;;;26.81;46.45;99171.72;5076120;28;20481;-81
2022/06/02 09:49:04;;;;;;;6.30;4.20;;;;;;;26.87;46.62;99174.81;5061027;28;20035;-79
2022/06/02 09:51:49;;;;;;;7.25;4.68;;;;;;;26.86;46.18;99173.09;5073185;28;20048;-79
2022/06/02 09:54:28;;;;;;;7.22;4.32;;;;;;;26.87;46.69;99172.16;5075631;28;20024;-80
2022/06/02 09:56:59;;;;;;;6.55;4.28;;;;;;;26.87;46.88;99166.78;5075034;28;20032;-80
2022/06/02 09:59:41;;;;;;;6.80;4.07;;;;;;;26.88;46.14;99177.34;5057359;28;20028;-81
2022/06/02 10:02:15;;;;;;;7.22;4.00;;;;;;;26.89;46.21;99181.75;5075521;28;20127;-78
2022/06/02 10:05:00;;;;;;;6.47;4.13;;;;;;;26.92;46.78;99167.25;5058426;28;20111;-79
2022/06/02 10:07:36;;;;;;;6.30;4.35;;;;;;;26.94;46.89;99176.00;5060050;28;20036;-80
2022/06/02 10:10:22;;;;;;;;;;;;;;;26.95;46.29;99180.34;5078931;28;20032;-81
2022/06/02 10:13:28;;;;;;;7.43;4.80;;;;;;;26.96;46.62;99190.06;5060947;28;19908;-80
2022/06/02 10:16:03;;;;;;;8.05;4.78;;;;;;;26.98;46.40;99177.41;5079315;28;20036;-81
2022/06/02 10:18:53;;;;;;;6.57;4.47;;;;;;;26.99;46.75;99184.44;5062052;28;20062;-81
2022/06/02 10:21:30;;;;;;;6.72;4.85;;;;;;;27.00;46.94;99186.13;5080915;28;20029;-82
2022/06/02 10:24:21;;;;;;;7.68;5.00;;;;;;;27.05;46.71;99180.34;5063525;28;20025;-83
2022/06/02 10:26:55;;;;;;;7.47;4.65;;;;;;;27.06;46.75;99182.03;5064572;28;20038;-80
2022/06/02 10:29:33;;;;;;;7.55;4.65;;;;;;;27.07;46.80;99181.06;5075890;28;20108;-79
2022/06/02 10:32:23;;;;;;;6.30;4.57;;;;;;;27.08;46.82;99178.22;5075454;28;20343;-79
2022/06/02 10:35:18;;;;;;;7.75;4.82;;;;;;;27.11;46.97;99174.44;5075305;28;20032;-78
2022/06/02 10:38:06;;;;;;;8.05;4.97;;;;;;;27.13;46.96;99166.25;5056979;28;20027;-78
2022/06/02 10:41:12;;;;;;;8.20;5.68;;;;;;;27.16;46.79;99174.03;5075264;28;20099;-78
2022/06/02 10:43:59;;;;;;;7.38;4.93;;;;;;;27.18;46.84;99167.53;5075055;28;20025;-80
2022/06/02 10:46:49;;;;;;;11.15;5.03;;;;;;;27.19;47.04;99174.59;5075124;28;20025;-78
2022/06/02 10:49:26;;;;;;;9.75;5.47;;;;;;;27.21;46.81;99163.72;5075145;28;20043;-81
2022/06/02 10:52:30;;;;;;;8.68;5.57;;;;;;;27.24;46.72;99160.75;5075367;28;20031;-78
2022/06/02 10:55:24;;;;;;;8.52;4.85;;;;;;;27.27;46.74;99160.50;5074766;28;20035;-79
2022/06/02 10:58:23;;;;;;;9.38;5.53;;;;;;;27.29;46.44;99163.88;5056901;28;20029;-78
2022/06/02 11:01:09;;;;;;;5.93;4.50;;;;;;;27.32;46.71;99160.06;5077135;28;20093;-78
2022/06/02 11:03:53;;;;;;;7.93;5.37;;;;;;;27.34;46.67;99155.38;5020692;28;20063;-78
2022/06/02 11:07:10;;;;;;;6.82;4.30;;;;;;;27.37;46.51;99148.91;5078471;28;20032;-78
2022/06/02 11:09:52;;;;;;;6.95;4.75;;;;;;;27.40;46.45;99156.66;5034238;28;20067;-79
2022/06/02 11:12:46;;;;;;;7.85;5.13;;;;;;;27.41;46.70;99150.31;5078594;28;20039;-79
2022/06/02 11:15:31;;;;;;;8.75;5.60;;;;;;;27.44;46.80;99155.38;5078521;28;20513;-79
2022/06/02 11:18:34;;;;;;;9.55;5.07;;;;;;;27.46;46.70;99142.69;5078667;28;20028;-78
2022/06/02 11:21:00;;;;;;;7.90;5.28;;;;;;;27.47;46.92;99142.53;5078124;28;20335;-79
2022/06/02 11:23:45;;;;;;;6.25;4.90;;;;;;;27.48;46.75;99143.38;5060893;28;20040;-79
2022/06/02 11:26:39;;;;;;;7.60;5.63;;;;;;;27.52;46.39;99135.91;5061329;28;20537;-78
2022/06/02 11:29:04;;;;;;;7.68;5.38;;;;;;;27.52;46.79;99146.63;5061904;28;20021;-80
2022/06/02 11:31:48;;;;;;;7.18;4.97;;;;;;;27.53;46.59;99141.13;5059842;28;20028;-79
2022/06/02 11:34:26;;;;;;;9.50;5.50;;;;;;;27.55;46.63;99144.50;5077670;28;20469;-78
2022/06/02 11:37:26;;;;;;;7.78;5.35;;;;;;;27.56;46.71;99138.13;5059805;28;20430;-80
2022/06/02 11:40:01;;;;;;;7.68;4.63;;;;;;;27.59;46.46;99145.94;5060179;28;20058;-78
2022/06/02 11:42:45;;;;;;;6.60;5.40;;;;;;;27.60;46.73;99144.94;5077971;28;20540;-78
2022/06/02 11:45:28;;;;;;;7.43;5.50;;;;;;;27.61;46.12;99157.34;5077841;28;20056;-78
2022/06/02 11:48:03;;;;;;;8.68;5.03;;;;;;;27.63;46.64;99141.13;5077474;28;20052;-78
2022/06/02 11:51:03;;;;;;;8.77;5.80;;;;;;;27.64;46.20;99153.53;5077852;28;20024;-80
2022/06/02 11:53:38;;;;;;;6.95;5.35;;;;;;;27.65;45.93;99135.63;5071556;28;20116;-78
2022/06/02 11:56:28;;;;;;;8.85;5.45;;;;;;;27.67;46.08;99139.00;5060102;28;20039;-81
2022/06/02 11:59:15;;;;;;;9.27;5.68;;;;;;;27.68;46.25;99135.31;5079952;28;20027;-78
2022/06/02 12:02:18;;;;;;;6.38;4.90;;;;;;;27.69;46.05;99115.59;5061370;28;20024;-79
2022/06/02 12:05:17;;;;;;;8.60;4.85;;;;;;;27.70;46.06;99111.91;5080183;28;20099;-78
2022/06/02 12:08:07;;;;;;;8.25;5.40;;;;;;;27.71;46.53;99109.06;5079518;28;20032;-79
2022/06/02 12:10:51;;;;;;;6.57;4.95;;;;;;;27.73;46.15;99106.25;5061351;28;20031;-78
2022/06/02 12:14:00;;;;;;;6.75;4.55;;;;;;;27.75;45.93;99109.66;5061392;28;20028;-79
2022/06/02 12:16:38;;;;;;;8.40;5.25;;;;;;;27.77;46.08;99096.94;5061382;28;20024;-80
2022/06/02 12:19:36;;;;;;;7.18;5.30;;;;;;;27.78;45.72;99093.25;5079360;28;20020;-80
2022/06/02 12:22:25;;;;;;;7.07;5.15;;;;;;;27.80;45.88;99085.06;5079500;28;20025;-83
2022/06/02 12:25:19;;;;;;;7.55;4.85;;;;;;;27.80;45.81;99085.91;5079399;28;20028;-80
2022/06/02 12:28:39;;;;;;;8.23;5.05;;;;;;;27.83;45.74;99084.75;5082950;28;20117;-80
2022/06/02 12:31:35;;;;;;;5.85;4.75;;;;;;;27.84;45.63;99073.06;4986044;28;20026;-82
2022/06/02 12:34:21;;;;;;;6.50;4.77;;;;;;;27.86;46.28;99073.75;5083247;28;20043;-79
2022/06/02 12:37:01;;;;;;;8.27;5.50;;;;;;;27.86;45.64;99077.28;5064643;28;20567;-81
2022/06/02 12:39:56;;;;;;;7.50;5.00;;;;;;;27.88;45.59;99072.59;5063612;28;20028;-80
2022/06/02 12:42:41;;;;;;;6.57;4.57;;;;;;;27.90;45.25;99059.06;5082337;28;20020;-81
2022/06/02 12:45:13;;;;;;;7.63;4.93;;;;;;;27.91;45.95;99054.53;5068837;28;20063;-82
2022/06/02 12:48:23;;;;;;;6.53;4.95;;;;;;;27.93;45.44;99057.91;5082755;28;20021;-78
2022/06/02 12:51:01;;;;;;;7.88;4.93;;;;;;;27.93;46.02;99052.56;4979799;28;20036;-80
2022/06/02 12:53:42;;;;;;;5.88;4.68;;;;;;;27.94;45.53;99036.31;4979110;28;20026;-79
2022/06/02 12:56:36;;;;;;;6.53;5.22;;;;;;;27.96;45.88;99041.53;5034385;28;20059;-78
2022/06/02 12:59:54;;;;;;;6.63;5.03;;;;;;;27.98;45.91;99042.19;5058788;28;20365;-79
2022/06/02 13:02:49;;;;;;;7.10;5.18;;;;;;;28.00;46.23;99048.28;4979918;28;20050;-78
2022/06/02 13:05:48;;;;;;;6.78;5.00;;;;;;;28.02;45.54;99030.19;4993991;28;20106;-78
2022/06/02 13:08:39;;;;;;;8.32;5.35;;;;;;;28.03;46.10;99034.56;5070233;28;20112;-79
2022/06/02 13:11:14;;;;;;;7.25;5.13;;;;;;;28.04;46.33;99043.47;5075816;28;20024;-79